• Join FlightAware (Why Join?)
  • Login
  • US Flag 
09:25PM EDT


 

Airport Tracker/Info


-or-


 

Live Flight TrackerFlight Track Log ✈ TAM3457 ✈ 07-Jul-2013 ✈ SBRF / REC - SBBR / BSB

Flight Track Log - Related Links

Times and Time Zones

All times are in EDT time to prevent confusion due to time zone crossing. See the TAM3457 flight status page for this flight to view local times or setup timezone preferences in your user account.

Time Position Orientation Groundspeed Altitude Reporting Facility
EDT Latitude Longitude Course Direction KTS MPH feet Rate Location/Type
05:38AM -8.9247 -36.1909 237° Southwest  Level Estimated
05:39AM -8.9778 -36.2757 238° Southwest  Level Estimated
05:40AM -9.0308 -36.3604 238° Southwest  Level Estimated
05:41AM -9.0838 -36.4452 238° Southwest  Level Estimated
05:42AM -9.1368 -36.5300 238° Southwest  Level Estimated
05:43AM -9.1898 -36.6148 238° Southwest  Level Estimated
05:44AM -9.2427 -36.6996 238° Southwest  Level Estimated
05:45AM -9.2957 -36.7845 238° Southwest  Level Estimated
05:46AM -9.3486 -36.8694 238° Southwest  Level Estimated
05:47AM -9.4087 -36.9659 238° Southwest  Level Estimated
05:48AM -9.4687 -37.0624 238° Southwest  Level Estimated
05:49AM -9.5288 -37.1590 238° Southwest  Level Estimated
05:50AM -9.5888 -37.2556 238° Southwest  Level Estimated
05:51AM -9.6488 -37.3522 238° Southwest  Level Estimated
05:52AM -9.7088 -37.4489 238° Southwest  Level Estimated
05:53AM -9.7687 -37.5456 238° Southwest  Level Estimated
05:54AM -9.8286 -37.6424 238° Southwest  Level Estimated
05:55AM -9.8885 -37.7392 238° Southwest  Level Estimated
05:56AM -9.9484 -37.8360 238° Southwest  Level Estimated
05:57AM -10.0082 -37.9328 238° Southwest  Level Estimated
05:58AM -10.0680 -38.0297 238° Southwest  Level Estimated
05:59AM -10.1278 -38.1266 238° Southwest  Level Estimated
06:00AM -10.1875 -38.2236 238° Southwest  Level Estimated
06:01AM -10.2472 -38.3206 238° Southwest  Level Estimated
06:02AM -10.3069 -38.4176 238° Southwest  Level Estimated
06:03AM -10.3666 -38.5147 238° Southwest  Level Estimated
06:04AM -10.4262 -38.6118 238° Southwest  Level Estimated
06:05AM -10.4858 -38.7089 238° Southwest  Level Estimated
06:06AM -10.5454 -38.8061 238° Southwest  Level Estimated
06:07AM -10.6049 -38.9033 238° Southwest  Level Estimated
06:08AM -10.6644 -39.0005 238° Southwest  Level Estimated
06:09AM -10.7239 -39.0978 238° Southwest  Level Estimated
06:10AM -10.7833 -39.1952 238° Southwest  Level Estimated
06:11AM -10.8428 -39.2925 238° Southwest  Level Estimated
06:12AM -10.9022 -39.3899 238° Southwest  Level Estimated
06:13AM -10.9615 -39.4874 238° Southwest  Level Estimated
06:14AM -11.0209 -39.5849 238° Southwest  Level Estimated
06:15AM -11.0801 -39.6824 238° Southwest  Level Estimated
06:16AM -11.1394 -39.7799 238° Southwest  Level Estimated
06:17AM -11.1987 -39.8775 238° Southwest  Level Estimated
06:18AM -11.2578 -39.9752 238° Southwest  Level Estimated
06:19AM -11.3170 -40.0729 238° Southwest  Level Estimated
06:20AM -11.3762 -40.1706 238° Southwest  Level Estimated
06:21AM -11.4353 -40.2683 238° Southwest  Level Estimated
06:22AM -11.4943 -40.3661 238° Southwest  Level Estimated
06:23AM -11.5534 -40.4640 238° Southwest  Level Estimated
06:24AM -11.6124 -40.5619 238° Southwest  Level Estimated
06:25AM -11.6714 -40.6598 238° Southwest  Level Estimated
06:26AM -11.7303 -40.7578 238° Southwest  Level Estimated
06:27AM -11.7892 -40.8558 238° Southwest  Level Estimated
06:28AM -11.8481 -40.9538 238° Southwest  Level Estimated
06:29AM -11.9069 -41.0519 238° Southwest  Level Estimated
06:30AM -11.9657 -41.1501 239° Southwest  Level Estimated
06:31AM -12.0245 -41.2483 239° Southwest  Level Estimated
06:32AM -12.0833 -41.3465 239° Southwest  Level Estimated
06:33AM -12.1420 -41.4448 239° Southwest  Level Estimated
06:34AM -12.2006 -41.5431 239° Southwest  Level Estimated
06:35AM -12.2593 -41.6414 239° Southwest  Level Estimated
06:36AM -12.3179 -41.7398 239° Southwest  Level Estimated
06:37AM -12.3764 -41.8383 239° Southwest  Level Estimated
06:38AM -12.4350 -41.9367 239° Southwest  Level Estimated
06:39AM -12.4935 -42.0353 239° Southwest  Level Estimated
06:40AM -12.5519 -42.1339 239° Southwest  Level Estimated
06:41AM -12.6103 -42.2325 239° Southwest  Level Estimated
06:42AM -12.6687 -42.3311 239° Southwest  Level Estimated
06:43AM -12.7271 -42.4299 239° Southwest  Level Estimated
06:44AM -12.7854 -42.5286 239° Southwest  Level Estimated
06:45AM -12.8437 -42.6274 239° Southwest  Level Estimated
06:46AM -12.9019 -42.7263 239° Southwest  Level Estimated
06:47AM -12.9601 -42.8251 239° Southwest  Level Estimated
06:48AM -13.0183 -42.9241 239° Southwest  Level Estimated
06:49AM -13.0764 -43.0231 239° Southwest  Level Estimated
06:50AM -13.1345 -43.1221 239° Southwest  Level Estimated
06:51AM -13.1925 -43.2212 239° Southwest  Level Estimated
06:52AM -13.2505 -43.3203 239° Southwest  Level Estimated
06:53AM -13.3085 -43.4195 239° Southwest  Level Estimated
06:54AM -13.3665 -43.5187 239° Southwest  Level Estimated
06:55AM -13.4244 -43.6180 239° Southwest  Level Estimated
06:56AM -13.4822 -43.7173 239° Southwest  Level Estimated
06:57AM -13.5400 -43.8167 239° Southwest  Level Estimated
06:58AM -13.5978 -43.9161 239° Southwest  Level Estimated
06:59AM -13.6556 -44.0155 239° Southwest  Level Estimated
07:00AM -13.7133 -44.1150 239° Southwest  Level Estimated
07:01AM -13.7709 -44.2146 239° Southwest  Level Estimated
07:02AM -13.8285 -44.3142 239° Southwest  Level Estimated
07:03AM -13.8861 -44.4139 239° Southwest  Level Estimated
07:04AM -13.9437 -44.5136 239° Southwest  Level Estimated
07:05AM -14.0012 -44.6133 239° Southwest  Level Estimated
07:06AM -14.0586 -44.7132 239° Southwest  Level Estimated
07:07AM -14.1160 -44.8130 239° Southwest  Level Estimated
07:08AM -14.1734 -44.9129 239° Southwest  Level Estimated
07:09AM -14.2308 -45.0129 239° Southwest  Level Estimated
07:10AM -14.2881 -45.1129 239° Southwest  Level Estimated
07:11AM -14.3453 -45.2130 239° Southwest  Level Estimated
07:12AM -14.4025 -45.3131 239° Southwest  Level Estimated
07:13AM -14.4597 -45.4132 239° Southwest  Level Estimated
07:14AM -14.5168 -45.5134 239° Southwest  Level Estimated
07:15AM -14.5739 -45.6137 240° Southwest  Level Estimated
07:16AM -14.6309 -45.7140 240° Southwest  Level Estimated
07:17AM -14.6879 -45.8144 240° Southwest  Level Estimated
07:18AM -14.7449 -45.9148 240° Southwest  Level Estimated
07:19AM -14.8018 -46.0153 240° Southwest  Level Estimated
07:20AM -14.8587 -46.1158 240° Southwest  Level Estimated
07:21AM -14.9155 -46.2164 240° Southwest  Level Estimated
07:22AM -14.9723 -46.3170 240° Southwest  Level Estimated
07:23AM -15.0290 -46.4177 240° Southwest  Level Estimated
07:24AM -15.0857 -46.5184 240° Southwest  Level Estimated
07:25AM -15.1424 -46.6192 240° Southwest  Level Estimated
07:26AM -15.1990 -46.7201 240° Southwest  Level Estimated
07:27AM -15.2555 -46.8210 240° Southwest  Level Estimated
07:28AM -15.3120 -46.9219 240° Southwest  Level Estimated
07:29AM -15.3685 -47.0229 240° Southwest  Level Estimated
07:30AM -15.4249 -47.1240 240° Southwest  Level Estimated
07:31AM -15.4813 -47.2251 240° Southwest  Level Estimated
07:32AM -15.5376 -47.3263 240° Southwest  Level Estimated
07:33AM -15.5939 -47.4275 240° Southwest  Level Estimated
07:34AM -15.6502 -47.5288 240° Southwest  Level Estimated
07:35AM -15.7063 -47.6301 240° Southwest  Level Estimated
07:36AM -15.7625 -47.7315 240° Southwest  Level Estimated
07:37AM -15.8186 -47.8330 240° Southwest  Level Estimated
07:38AM -15.8626 -47.9127 240° Southwest  Level Estimated
07:39AM -15.8626 -47.9127 128° Southeast  Level Estimated
07:40AM -15.8626 -47.9127 128° Southeast  Level Estimated
07:41AM -15.8626 -47.9127 128° Southeast  Level Estimated
07:42AM -15.8626 -47.9127 128° Southeast  Level Estimated
07:43AM -15.8626 -47.9127 128° Southeast  Level Estimated
07:44AM -15.8626 -47.9127 128° Southeast  Level Estimated
07:45AM -15.8626 -47.9127 128° Southeast  Level Estimated
07:46AM -15.8626 -47.9127 128° Southeast  Level Estimated
07:47AM -15.8626 -47.9127 128° Southeast  Level Estimated
07:48AM -15.8626 -47.9127 128° Southeast  Level Estimated
07:49AM -15.8626 -47.9127 128° Southeast  Level Estimated